FIND THE ANSWERS

What is the curent temperature at will rogers world airport?

Answer this question

  • What is the curent temperature at will rogers world airport?


Answers

Oklahoma City, Will Rogers World Airport: ... Wind (mph) Vis. (mi.) Weather Sky Cond. Temperature (ºF) Relative Humidity Wind Chill (°F) Heat Index (°F ...
Read more
Positive: 88 %
Will Rogers World Airport is located in Oklahoma City, ... To view current events at the airport select from our most recent post or select ...
Read more
Positive: 85 %

More resources

Parking at Oklahoma City Will Rogers World Airport AirportParking.com can make your ... œinternational,†despite having no current flights to ...
Read more
Positive: 88 %
The Current Temperature map shows the current ... Airport Delays; ... be calibrated to a variety of temperature scales. In most of the world ...
Read more
Positive: 83 %
KOKC/Will Rogers World General Airport Information ... Current UTC: 5:43:32 AM: ... KOKC 090452Z 19004KT 10SM FEW150 SCT250 11/02 A3011 RMK AO2 SLP191 ...
Read more
Positive: 69 %
Current local time in USA ... Main World Clock Extended World Clock Personal World Clock World Time Lookup Time ... Airports. Portland International ...
Read more
Positive: 46 %

Show more results

Anonymous20483
Login to your account
Create new account